createdAt,value
2024-02-10T00:00:28.807Z,-12.76
2024-02-10T00:02:59.957Z,-12.63
2024-02-10T00:05:36.916Z,-12.54
2024-02-10T00:08:04.642Z,-12.80
2024-02-10T00:10:32.188Z,-12.84
2024-02-10T00:13:01.651Z,-12.81
2024-02-10T00:15:29.458Z,-12.97
2024-02-10T00:17:57.415Z,-12.91
2024-02-10T00:20:27.640Z,-13.21
2024-02-10T00:22:55.644Z,-13.04
2024-02-10T00:25:26.257Z,-13.00
2024-02-10T00:27:59.958Z,-13.02
2024-02-10T00:30:31.201Z,-12.95
2024-02-10T00:33:03.318Z,-12.78
2024-02-10T00:35:40.482Z,-12.93
2024-02-10T00:38:07.717Z,-13.11
2024-02-10T00:40:35.264Z,-13.32
2024-02-10T00:43:05.908Z,-12.87
2024-02-10T00:45:33.458Z,-13.05
2024-02-10T00:48:01.853Z,-12.95
2024-02-10T00:50:29.287Z,-13.00
2024-02-10T00:52:56.676Z,-12.82
2024-02-10T00:55:27.174Z,-13.24
2024-02-10T00:57:54.668Z,-12.97
2024-02-10T01:00:23.526Z,-13.09
2024-02-10T01:02:52.382Z,-13.00
2024-02-10T01:05:20.149Z,-12.76
2024-02-10T01:07:49.296Z,-13.06
2024-02-10T01:10:17.320Z,-12.92
2024-02-10T01:12:45.049Z,-12.80
2024-02-10T01:15:14.787Z,-13.21
2024-02-10T01:17:48.208Z,-12.80
2024-02-10T01:20:18.661Z,-13.14
2024-02-10T01:22:46.841Z,-12.92
2024-02-10T01:25:14.567Z,-13.19
2024-02-10T01:27:45.070Z,-13.21
2024-02-10T01:30:14.410Z,-13.49
2024-02-10T01:32:44.040Z,-13.16
2024-02-10T01:35:12.325Z,-13.18
2024-02-10T01:37:42.579Z,-12.94
2024-02-10T01:40:12.791Z,-12.83
2024-02-10T01:42:43.071Z,-13.12
2024-02-10T01:45:15.297Z,-13.04
2024-02-10T01:47:47.199Z,-12.95
2024-02-10T01:50:16.020Z,-13.03
2024-02-10T01:52:49.724Z,-12.82
2024-02-10T01:55:24.566Z,-12.85
2024-02-10T01:58:04.427Z,-12.91
2024-02-10T02:03:47.749Z,-13.06
2024-02-10T02:15:45.338Z,-13.54
2024-02-10T02:21:37.133Z,-13.08
2024-02-10T02:24:19.129Z,-13.70
2024-02-10T02:58:45.276Z,-13.74
2024-02-10T03:03:54.495Z,-13.31
2024-02-10T03:06:22.409Z,-13.82
2024-02-10T03:08:49.837Z,-13.60
2024-02-10T03:11:20.914Z,-13.78
2024-02-10T03:13:49.170Z,-13.38
2024-02-10T03:16:23.956Z,-13.59
2024-02-10T03:18:51.366Z,-13.68
2024-02-10T03:21:19.385Z,-13.47
2024-02-10T03:23:46.904Z,-14.07
2024-02-10T03:26:14.946Z,-13.64
2024-02-10T03:28:42.518Z,-13.62
2024-02-10T03:31:11.188Z,-13.64
2024-02-10T03:33:38.661Z,-13.65
2024-02-10T03:36:06.589Z,-13.63
2024-02-10T03:38:33.950Z,-13.67
2024-02-10T03:41:01.470Z,-13.62
2024-02-10T03:43:29.146Z,-13.26
2024-02-10T03:45:56.516Z,-13.44
2024-02-10T03:48:33.805Z,-13.44
2024-02-10T03:51:01.291Z,-13.34
2024-02-10T03:53:28.872Z,-13.28
2024-02-10T03:55:58.264Z,-13.10
2024-02-10T03:58:27.184Z,-13.57
2024-02-10T04:00:55.321Z,-13.50
2024-02-10T04:08:12.312Z,-13.14
2024-02-10T04:13:34.338Z,-13.56
2024-02-10T04:16:04.124Z,-13.37
2024-02-10T04:21:18.078Z,-13.22
2024-02-10T04:23:53.737Z,-13.51
2024-02-10T04:26:31.636Z,-13.10
2024-02-10T04:34:33.215Z,-13.05
2024-02-10T04:37:01.611Z,-13.16
2024-02-10T04:39:30.811Z,-13.71
2024-02-10T04:41:59.503Z,-13.44
2024-02-10T04:44:32.817Z,-13.39
2024-02-10T04:49:45.301Z,-13.50
2024-02-10T05:00:30.850Z,-13.43
2024-02-10T05:05:46.901Z,-13.49
2024-02-10T05:08:15.012Z,-13.82
2024-02-10T05:16:12.640Z,-13.76
2024-02-10T05:27:04.300Z,-14.09
2024-02-10T05:29:46.562Z,-13.67
2024-02-10T05:32:16.862Z,-14.21
2024-02-10T05:34:47.815Z,-13.99
2024-02-10T05:37:20.963Z,-13.74
2024-02-10T05:45:14.854Z,-13.85
2024-02-10T06:03:58.141Z,-13.88
2024-02-10T06:06:29.313Z,-13.91
2024-02-10T06:09:03.093Z,-13.88
2024-02-10T06:14:20.993Z,-13.43
2024-02-10T06:16:56.178Z,-13.39
2024-02-10T06:19:26.667Z,-13.30
2024-02-10T06:21:54.392Z,-13.75
2024-02-10T06:24:31.452Z,-13.46
2024-02-10T06:29:40.057Z,-13.41
2024-02-10T06:32:07.674Z,-13.63
2024-02-10T06:34:36.844Z,-13.42
2024-02-10T06:37:09.397Z,-13.71
2024-02-10T06:39:40.147Z,-13.45
2024-02-10T06:42:10.860Z,-13.44
2024-02-10T06:44:44.392Z,-13.33
2024-02-10T06:47:16.719Z,-12.96
2024-02-10T06:49:49.599Z,-13.35
2024-02-10T06:52:17.573Z,-13.26
2024-02-10T06:54:46.780Z,-12.85
2024-02-10T06:57:27.238Z,-13.15
2024-02-10T06:59:58.381Z,-13.45
2024-02-10T07:02:31.330Z,-13.50
2024-02-10T07:04:59.964Z,-12.96
2024-02-10T07:07:28.292Z,-12.85
2024-02-10T07:10:00.970Z,-12.91
2024-02-10T07:12:35.098Z,-12.77
2024-02-10T07:15:02.981Z,-12.85
2024-02-10T07:17:37.371Z,-12.85
2024-02-10T07:20:06.047Z,-12.82
2024-02-10T07:22:35.990Z,-12.93
2024-02-10T07:25:15.351Z,-12.78
2024-02-10T07:27:46.588Z,-12.85
2024-02-10T07:30:15.855Z,-13.28
2024-02-10T07:32:50.339Z,-12.71
2024-02-10T07:35:20.061Z,-12.89
2024-02-10T07:37:50.421Z,-12.58
2024-02-10T07:40:19.461Z,-12.56
2024-02-10T07:42:47.914Z,-12.48
2024-02-10T07:45:19.176Z,-12.26
2024-02-10T07:47:48.437Z,-12.51
2024-02-10T07:50:15.906Z,-12.22
2024-02-10T07:52:46.764Z,-12.44
2024-02-10T07:55:40.634Z,-12.32
2024-02-10T07:58:11.296Z,-12.00
2024-02-10T08:00:43.236Z,-12.18
2024-02-10T08:03:14.633Z,-12.25
2024-02-10T08:05:43.945Z,-12.28
2024-02-10T08:08:12.112Z,-12.24
2024-02-10T08:10:40.120Z,-12.22
2024-02-10T08:13:07.935Z,-12.46
2024-02-10T08:15:35.611Z,-12.50
2024-02-10T08:18:07.300Z,-12.14
2024-02-10T08:20:36.036Z,-12.51
2024-02-10T08:23:04.130Z,-12.14
2024-02-10T08:25:33.052Z,-11.99
2024-02-10T08:28:02.594Z,-12.24
2024-02-10T08:30:30.742Z,-12.35
2024-02-10T08:33:03.160Z,-12.16
2024-02-10T08:35:32.356Z,-11.75
2024-02-10T08:37:59.947Z,-11.72
2024-02-10T08:40:27.284Z,-11.82
2024-02-10T08:42:55.561Z,-11.91
2024-02-10T08:45:23.124Z,-11.69
2024-02-10T08:47:51.139Z,-11.70
2024-02-10T08:50:19.934Z,-11.66
2024-02-10T08:52:53.077Z,-11.66
2024-02-10T08:55:21.657Z,-11.97
2024-02-10T08:57:52.563Z,-12.08
2024-02-10T09:00:23.341Z,-11.67
2024-02-10T09:02:52.384Z,-11.46
2024-02-10T09:05:20.046Z,-11.65
2024-02-10T09:43:42.133Z,-11.70
2024-02-10T09:46:13.616Z,-11.37
2024-02-10T09:48:55.041Z,-11.34
2024-02-10T09:51:30.951Z,-11.11
2024-02-10T09:54:01.598Z,-11.08
2024-02-10T09:56:36.528Z,-10.78
2024-02-10T09:59:08.673Z,-10.71
2024-02-10T10:01:39.306Z,-10.76
2024-02-10T10:04:13.744Z,-10.59
2024-02-10T10:06:48.922Z,-11.07
2024-02-10T10:09:20.185Z,-11.06
2024-02-10T10:11:52.327Z,-11.00
2024-02-10T10:14:22.347Z,-10.40
2024-02-10T10:17:02.040Z,-10.51
2024-02-10T10:19:32.068Z,-10.64
2024-02-10T10:22:04.628Z,-10.28
2024-02-10T10:24:59.984Z,-10.26
2024-02-10T10:27:27.656Z,-10.86
2024-02-10T10:29:58.856Z,-10.54
2024-02-10T10:32:33.011Z,-10.46
2024-02-10T10:35:02.952Z,-10.54
2024-02-10T10:37:32.773Z,-10.59
2024-02-10T10:40:13.086Z,-10.56
2024-02-10T10:42:44.124Z,-10.51
2024-02-10T10:45:16.941Z,-10.07
2024-02-10T10:47:47.264Z,-10.43
2024-02-10T10:50:17.895Z,-10.18
2024-02-10T10:52:49.136Z,-10.04
2024-02-10T10:55:19.625Z,-10.21
2024-02-10T10:57:51.591Z,-10.38
2024-02-10T11:00:22.502Z,-10.33
2024-02-10T11:03:00.751Z,-10.32
2024-02-10T11:05:28.417Z,-10.15
2024-02-10T11:08:03.309Z,-10.01
2024-02-10T11:31:00.943Z,-10.27
2024-02-10T11:36:32.334Z,-9.61
2024-02-10T11:39:01.206Z,-9.81
2024-02-10T11:41:33.483Z,-9.75
2024-02-10T11:44:14.517Z,-9.79
2024-02-10T11:46:50.117Z,-9.62
2024-02-10T11:49:27.669Z,-9.92
2024-02-10T11:52:05.377Z,-10.14
2024-02-10T11:54:53.547Z,-9.74
2024-02-10T11:57:25.106Z,-10.15
2024-02-10T11:59:57.645Z,-10.03
2024-02-10T12:02:34.024Z,-10.11
2024-02-10T12:05:06.197Z,-9.59
2024-02-10T12:07:48.448Z,-9.38
2024-02-10T12:10:21.716Z,-9.31
2024-02-10T12:13:06.109Z,-9.12
2024-02-10T13:05:02.689Z,-7.74
2024-02-10T13:20:52.143Z,-8.12
2024-02-10T13:23:20.957Z,-8.05
2024-02-10T13:25:53.421Z,-8.24
2024-02-10T13:28:26.174Z,-8.33
2024-02-10T13:30:54.635Z,-8.85
2024-02-10T13:33:25.346Z,-9.26
2024-02-10T13:35:56.268Z,-9.27
2024-02-10T13:38:45.275Z,-9.46
2024-02-10T13:41:31.176Z,-9.95
2024-02-10T13:44:17.271Z,-10.30
2024-02-10T13:47:10.006Z,-10.30
2024-02-10T13:50:00.866Z,-10.07
2024-02-10T13:52:54.455Z,-10.75
2024-02-10T13:55:55.545Z,-10.28
2024-02-10T14:01:54.916Z,-10.29
2024-02-10T14:04:41.375Z,-10.48
2024-02-10T14:07:36.218Z,-10.22
2024-02-10T14:10:12.754Z,-10.58
2024-02-10T14:12:51.821Z,-10.67
2024-02-10T14:15:28.801Z,-10.95
2024-02-10T14:18:02.611Z,-10.99
2024-02-10T14:20:39.325Z,-10.93
2024-02-10T14:23:13.604Z,-11.09
2024-02-10T14:25:48.185Z,-11.22
2024-02-10T14:31:17.848Z,-11.71
2024-02-10T14:34:03.196Z,-11.81
2024-02-10T14:36:39.261Z,-11.84
2024-02-10T14:39:10.857Z,-11.63
2024-02-10T14:41:53.095Z,-11.73
2024-02-10T14:47:58.629Z,-11.64
2024-02-10T14:50:30.682Z,-12.15
2024-02-10T14:58:40.773Z,-12.19
2024-02-10T15:07:00.342Z,-12.41
2024-02-10T15:12:28.747Z,-12.44
2024-02-10T15:15:06.281Z,-12.13
2024-02-10T15:18:04.278Z,-11.81
2024-02-10T15:20:51.076Z,-12.33
2024-02-10T15:23:19.517Z,-12.33
2024-02-10T15:25:49.509Z,-12.07
2024-02-10T15:28:36.106Z,-11.93
2024-02-10T15:31:29.876Z,-12.38
2024-02-10T15:34:07.841Z,-12.11
2024-02-10T15:37:00.764Z,-12.52
2024-02-10T15:39:38.666Z,-12.68
2024-02-10T15:42:33.222Z,-12.24
2024-02-10T15:45:38.618Z,-12.59
2024-02-10T15:48:18.846Z,-12.61
2024-02-10T15:50:47.379Z,-12.49
2024-02-10T15:53:54.678Z,-12.63
2024-02-10T15:56:29.501Z,-12.68
2024-02-10T15:59:08.041Z,-12.06
2024-02-10T16:01:44.416Z,-12.51
2024-02-10T16:04:15.276Z,-12.41
2024-02-10T16:06:48.403Z,-12.67
2024-02-10T16:09:18.791Z,-12.35
2024-02-10T16:11:52.304Z,-12.48
2024-02-10T16:14:29.438Z,-12.43
2024-02-10T16:17:02.398Z,-12.12
2024-02-10T16:19:30.974Z,-12.68
2024-02-10T16:22:00.884Z,-12.66
2024-02-10T16:24:31.164Z,-12.11
2024-02-10T16:27:02.082Z,-12.39
2024-02-10T16:29:29.516Z,-12.15
2024-02-10T16:31:59.943Z,-12.24
2024-02-10T16:34:30.160Z,-12.31
2024-02-10T16:37:00.062Z,-12.33
2024-02-10T16:39:27.415Z,-12.34
2024-02-10T16:41:58.866Z,-12.37
2024-02-10T16:44:29.252Z,-12.43
2024-02-10T16:47:01.159Z,-12.29
2024-02-10T16:49:52.000Z,-12.57
2024-02-10T16:52:25.297Z,-12.91
2024-02-10T16:54:56.799Z,-12.74
2024-02-10T16:57:49.185Z,-12.73
2024-02-10T17:00:28.312Z,-12.59
2024-02-10T17:03:02.655Z,-12.43
2024-02-10T17:05:34.937Z,-12.64
2024-02-10T17:08:04.075Z,-12.62
2024-02-10T17:10:36.466Z,-12.70
2024-02-10T17:13:08.471Z,-12.64
2024-02-10T17:15:44.392Z,-12.72
2024-02-10T17:18:15.794Z,-12.43
2024-02-10T17:21:02.373Z,-13.01
2024-02-10T17:23:35.372Z,-12.51
2024-02-10T17:26:08.532Z,-12.92
2024-02-10T17:28:38.937Z,-12.71
2024-02-10T17:31:15.652Z,-12.61
2024-02-10T17:33:45.858Z,-12.96
2024-02-10T17:36:23.456Z,-12.87
2024-02-10T17:39:03.932Z,-12.46
2024-02-10T17:41:33.603Z,-12.55
2024-02-10T17:44:01.898Z,-12.49
2024-02-10T17:46:31.693Z,-12.46
2024-02-10T17:49:02.209Z,-12.81
2024-02-10T17:51:30.679Z,-12.86
2024-02-10T17:54:09.881Z,-12.93
2024-02-10T17:56:38.381Z,-13.05
2024-02-10T17:59:06.438Z,-12.58
2024-02-10T18:01:34.338Z,-12.85
2024-02-10T18:04:02.306Z,-12.59
2024-02-10T18:06:32.323Z,-12.65
2024-02-10T18:09:05.062Z,-13.22
2024-02-10T18:15:06.561Z,-12.74
2024-02-10T18:17:34.084Z,-13.11
2024-02-10T18:20:03.283Z,-12.68
2024-02-10T18:22:34.465Z,-12.98
2024-02-10T18:25:05.356Z,-12.88
2024-02-10T18:27:34.002Z,-12.72
2024-02-10T18:30:04.904Z,-12.86
2024-02-10T18:32:34.034Z,-12.81
2024-02-10T18:35:03.151Z,-12.86
2024-02-10T18:37:52.230Z,-12.79
2024-02-10T18:40:20.490Z,-12.93
2024-02-10T18:42:49.151Z,-13.14
2024-02-10T18:45:45.791Z,-13.31
2024-02-10T18:48:21.679Z,-13.44
2024-02-10T18:50:55.004Z,-13.11
2024-02-10T18:53:22.900Z,-13.11
2024-02-10T18:55:51.743Z,-12.97
2024-02-10T18:58:19.327Z,-13.00
2024-02-10T19:00:50.712Z,-12.73
2024-02-10T19:03:18.324Z,-12.67
2024-02-10T19:05:48.230Z,-12.71
2024-02-10T19:08:16.811Z,-12.59
2024-02-10T19:10:45.453Z,-12.81
2024-02-10T19:13:16.674Z,-12.80
2024-02-10T19:15:44.307Z,-13.00
2024-02-10T19:18:15.700Z,-12.57
2024-02-10T19:20:48.561Z,-12.83
2024-02-10T19:23:16.491Z,-12.63
2024-02-10T19:25:53.249Z,-12.66
2024-02-10T19:28:20.739Z,-12.86
2024-02-10T19:30:50.937Z,-12.75
2024-02-10T19:33:20.852Z,-13.14
2024-02-10T19:35:57.845Z,-13.04
2024-02-10T19:38:30.343Z,-13.33
2024-02-10T19:41:04.247Z,-13.00
2024-02-10T19:43:32.039Z,-13.10
2024-02-10T19:46:01.786Z,-13.14
2024-02-10T19:48:32.789Z,-12.98
2024-02-10T19:51:07.705Z,-12.90
2024-02-10T19:53:36.693Z,-12.90
2024-02-10T19:56:05.852Z,-12.83
2024-02-10T19:58:35.863Z,-12.64
2024-02-10T20:01:04.566Z,-12.73
2024-02-10T20:03:32.509Z,-13.04
2024-02-10T20:06:06.511Z,-13.04
2024-02-10T20:08:36.749Z,-13.04
2024-02-10T20:11:05.401Z,-12.92
2024-02-10T20:13:32.891Z,-13.01
2024-02-10T20:18:49.254Z,-13.00
2024-02-10T20:21:17.821Z,-13.08
2024-02-10T20:23:45.978Z,-12.76
2024-02-10T20:26:14.544Z,-12.82
2024-02-10T20:28:43.477Z,-13.03
2024-02-10T20:31:18.441Z,-12.96
2024-02-10T20:33:53.846Z,-13.02
2024-02-10T20:36:28.552Z,-12.97
2024-02-10T20:38:58.029Z,-13.08
2024-02-10T20:41:25.611Z,-13.04
2024-02-10T20:43:52.930Z,-12.80
2024-02-10T20:46:24.948Z,-13.11
2024-02-10T20:48:54.087Z,-13.37
2024-02-10T20:51:21.333Z,-12.86
2024-02-10T20:53:48.882Z,-13.11
2024-02-10T20:56:16.943Z,-13.06
2024-02-10T20:58:45.450Z,-12.94
2024-02-10T21:01:12.946Z,-12.97
2024-02-10T21:03:40.672Z,-13.38
2024-02-10T21:06:08.578Z,-12.79
2024-02-10T21:08:39.006Z,-12.92
2024-02-10T21:11:07.304Z,-12.78
2024-02-10T21:13:35.048Z,-13.27
2024-02-10T21:16:04.462Z,-13.23
2024-02-10T21:18:34.427Z,-13.25
2024-02-10T21:21:02.069Z,-13.04
2024-02-10T21:23:32.044Z,-13.34
2024-02-10T21:25:59.457Z,-13.00
2024-02-10T21:28:28.628Z,-12.92
2024-02-10T21:31:06.316Z,-13.52
2024-02-10T21:33:34.847Z,-12.85
2024-02-10T21:36:03.757Z,-13.16
2024-02-10T21:38:31.226Z,-12.94
2024-02-10T21:40:58.685Z,-13.06
2024-02-10T21:43:26.546Z,-13.01
2024-02-10T21:45:56.223Z,-13.35
2024-02-10T21:48:23.822Z,-12.94
2024-02-10T21:50:51.149Z,-12.82
2024-02-10T21:53:18.981Z,-12.82
2024-02-10T21:55:46.983Z,-13.22
2024-02-10T21:58:15.490Z,-13.43
2024-02-10T22:00:42.916Z,-12.90
2024-02-10T22:03:12.833Z,-13.07
2024-02-10T22:05:42.502Z,-12.97
2024-02-10T22:08:10.000Z,-13.06
2024-02-10T22:10:38.508Z,-13.18
2024-02-10T22:13:08.079Z,-12.98
2024-02-10T22:15:43.975Z,-12.96
2024-02-10T22:18:14.959Z,-12.98
2024-02-10T22:20:43.349Z,-13.06
